sensor_id;sensor_type;location;lat;lon;timestamp;pressure;altitude;pressure_sealevel;temperature;humidity
77583;BME280;66726;52.388;9.986;2023-05-07T00:01:59;101408.16;;;11.19;74.15
77583;BME280;66726;52.388;9.986;2023-05-07T00:04:31;101405.91;;;11.14;74.39
77583;BME280;66726;52.388;9.986;2023-05-07T00:07:07;101412.63;;;11.28;73.91
77583;BME280;66726;52.388;9.986;2023-05-07T00:09:40;101405.84;;;11.24;74.40
77583;BME280;66726;52.388;9.986;2023-05-07T00:12:12;101409.97;;;11.18;74.56
77583;BME280;66726;52.388;9.986;2023-05-07T00:14:44;101405.84;;;11.24;74.18
77583;BME280;66726;52.388;9.986;2023-05-07T00:17:16;101406.09;;;11.31;73.82
77583;BME280;66726;52.388;9.986;2023-05-07T00:19:48;101408.75;;;11.03;74.48
77583;BME280;66726;52.388;9.986;2023-05-07T00:22:20;101405.06;;;11.14;74.51
77583;BME280;66726;52.388;9.986;2023-05-07T00:24:53;101410.75;;;11.01;75.48
77583;BME280;66726;52.388;9.986;2023-05-07T00:27:25;101408.81;;;10.94;75.81
77583;BME280;66726;52.388;9.986;2023-05-07T00:29:57;101415.69;;;11.06;75.22
77583;BME280;66726;52.388;9.986;2023-05-07T00:32:28;101402.97;;;11.08;74.90
77583;BME280;66726;52.388;9.986;2023-05-07T00:35:00;101401.19;;;10.99;75.84
77583;BME280;66726;52.388;9.986;2023-05-07T00:37:32;101392.13;;;11.00;75.86
77583;BME280;66726;52.388;9.986;2023-05-07T00:40:07;101389.78;;;10.87;76.50
77583;BME280;66726;52.388;9.986;2023-05-07T00:42:40;101387.53;;;10.92;76.26
77583;BME280;66726;52.388;9.986;2023-05-07T00:45:12;101394.09;;;11.07;75.34
77583;BME280;66726;52.388;9.986;2023-05-07T00:47:44;101385.75;;;11.10;75.75
77583;BME280;66726;52.388;9.986;2023-05-07T00:50:16;101384.31;;;10.89;76.47
77583;BME280;66726;52.388;9.986;2023-05-07T00:52:49;101385.94;;;10.99;76.19
77583;BME280;66726;52.388;9.986;2023-05-07T00:55:23;101384.56;;;10.95;76.54
77583;BME280;66726;52.388;9.986;2023-05-07T00:57:55;101388.66;;;10.90;76.82
77583;BME280;66726;52.388;9.986;2023-05-07T01:00:27;101389.94;;;10.86;76.52
77583;BME280;66726;52.388;9.986;2023-05-07T01:02:59;101387.16;;;10.78;77.39
77583;BME280;66726;52.388;9.986;2023-05-07T01:05:32;101382.38;;;10.72;77.43
77583;BME280;66726;52.388;9.986;2023-05-07T01:08:06;101383.88;;;10.84;76.54
77583;BME280;66726;52.388;9.986;2023-05-07T01:10:40;101387.16;;;10.78;77.73
77583;BME280;66726;52.388;9.986;2023-05-07T01:13:14;101379.22;;;10.86;76.95
77583;BME280;66726;52.388;9.986;2023-05-07T01:15:46;101374.75;;;10.77;77.22
77583;BME280;66726;52.388;9.986;2023-05-07T01:18:18;101382.91;;;10.85;76.58
77583;BME280;66726;52.388;9.986;2023-05-07T01:20:50;101386.69;;;10.92;76.60
77583;BME280;66726;52.388;9.986;2023-05-07T01:23:23;101385.41;;;10.86;76.54
77583;BME280;66726;52.388;9.986;2023-05-07T01:25:56;101388.69;;;10.80;76.61
77583;BME280;66726;52.388;9.986;2023-05-07T01:28:28;101385.88;;;10.72;77.32
77583;BME280;66726;52.388;9.986;2023-05-07T01:31:05;101388.31;;;10.75;77.14
77583;BME280;66726;52.388;9.986;2023-05-07T01:33:40;101386.94;;;10.61;76.63
77583;BME280;66726;52.388;9.986;2023-05-07T01:36:13;101396.47;;;10.74;76.54
77583;BME280;66726;52.388;9.986;2023-05-07T01:38:48;101403.81;;;10.72;76.70
77583;BME280;66726;52.388;9.986;2023-05-07T01:41:20;101396.75;;;10.71;76.70
77583;BME280;66726;52.388;9.986;2023-05-07T01:43:56;101399.56;;;10.79;76.63
77583;BME280;66726;52.388;9.986;2023-05-07T01:46:31;101390.53;;;10.80;76.82
77583;BME280;66726;52.388;9.986;2023-05-07T01:49:03;101386.91;;;10.71;76.31
77583;BME280;66726;52.388;9.986;2023-05-07T01:51:36;101387.84;;;10.80;76.00
77583;BME280;66726;52.388;9.986;2023-05-07T01:54:09;101390.44;;;10.72;76.12
77583;BME280;66726;52.388;9.986;2023-05-07T01:56:41;101392.50;;;10.78;76.18
77583;BME280;66726;52.388;9.986;2023-05-07T01:59:12;101391.44;;;10.61;76.50
77583;BME280;66726;52.388;9.986;2023-05-07T02:01:44;101393.91;;;10.72;75.51
77583;BME280;66726;52.388;9.986;2023-05-07T02:04:16;101390.88;;;10.57;76.00
77583;BME280;66726;52.388;9.986;2023-05-07T02:06:48;101396.91;;;10.59;76.39
77583;BME280;66726;52.388;9.986;2023-05-07T02:09:22;101384.81;;;10.55;76.29
77583;BME280;66726;52.388;9.986;2023-05-07T02:11:54;101379.59;;;10.63;76.54
77583;BME280;66726;52.388;9.986;2023-05-07T02:14:26;101381.00;;;10.48;76.83
77583;BME280;66726;52.388;9.986;2023-05-07T02:16:58;101390.78;;;10.40;76.55
77583;BME280;66726;52.388;9.986;2023-05-07T02:19:30;101391.16;;;10.45;76.45
77583;BME280;66726;52.388;9.986;2023-05-07T02:22:01;101391.31;;;10.53;75.92
77583;BME280;66726;52.388;9.986;2023-05-07T02:24:34;101392.13;;;10.63;75.80
77583;BME280;66726;52.388;9.986;2023-05-07T02:27:06;101391.28;;;10.62;75.98
77583;BME280;66726;52.388;9.986;2023-05-07T02:29:38;101397.91;;;10.58;76.18
77583;BME280;66726;52.388;9.986;2023-05-07T02:32:10;101397.06;;;10.48;76.46
77583;BME280;66726;52.388;9.986;2023-05-07T02:34:42;101404.41;;;10.46;76.36
77583;BME280;66726;52.388;9.986;2023-05-07T02:37:14;101396.25;;;10.38;76.91
77583;BME280;66726;52.388;9.986;2023-05-07T02:39:47;101408.25;;;10.34;76.95
77583;BME280;66726;52.388;9.986;2023-05-07T02:42:19;101409.81;;;10.27;77.10
77583;BME280;66726;52.388;9.986;2023-05-07T02:44:51;101409.22;;;10.33;77.22
77583;BME280;66726;52.388;9.986;2023-05-07T02:47:23;101413.31;;;10.47;76.28
77583;BME280;66726;52.388;9.986;2023-05-07T02:49:57;101412.59;;;10.45;76.29
77583;BME280;66726;52.388;9.986;2023-05-07T02:52:29;101407.81;;;10.39;76.50
77583;BME280;66726;52.388;9.986;2023-05-07T02:55:02;101416.28;;;10.34;76.42
77583;BME280;66726;52.388;9.986;2023-05-07T02:57:34;101406.97;;;10.38;76.32
77583;BME280;66726;52.388;9.986;2023-05-07T03:00:14;101409.53;;;10.30;75.91
77583;BME280;66726;52.388;9.986;2023-05-07T03:02:47;101408.69;;;10.20;76.47
77583;BME280;66726;52.388;9.986;2023-05-07T03:05:19;101409.78;;;10.17;76.67
77583;BME280;66726;52.388;9.986;2023-05-07T03:07:51;101407.25;;;10.06;77.28
77583;BME280;66726;52.388;9.986;2023-05-07T03:10:24;101406.13;;;9.99;77.48
77583;BME280;66726;52.388;9.986;2023-05-07T03:12:56;101405.38;;;10.07;77.28
77583;BME280;66726;52.388;9.986;2023-05-07T03:15:28;101400.88;;;10.07;77.69
77583;BME280;66726;52.388;9.986;2023-05-07T03:18:00;101394.84;;;10.05;77.65
77583;BME280;66726;52.388;9.986;2023-05-07T03:20:33;101388.06;;;10.11;77.33
77583;BME280;66726;52.388;9.986;2023-05-07T03:23:06;101398.66;;;10.12;76.92
77583;BME280;66726;52.388;9.986;2023-05-07T03:25:39;101402.91;;;10.15;76.98
77583;BME280;66726;52.388;9.986;2023-05-07T03:28:11;101403.03;;;10.13;77.21
77583;BME280;66726;52.388;9.986;2023-05-07T03:30:43;101405.38;;;10.07;77.01
77583;BME280;66726;52.388;9.986;2023-05-07T03:33:15;101404.41;;;10.08;77.15
77583;BME280;66726;52.388;9.986;2023-05-07T03:35:47;101404.97;;;10.11;77.69
77583;BME280;66726;52.388;9.986;2023-05-07T03:38:19;101399.38;;;10.14;77.26
77583;BME280;66726;52.388;9.986;2023-05-07T03:40:52;101396.81;;;10.13;77.48
77583;BME280;66726;52.388;9.986;2023-05-07T03:43:24;101392.00;;;10.07;77.57
77583;BME280;66726;52.388;9.986;2023-05-07T03:45:56;101395.41;;;10.09;77.63
77583;BME280;66726;52.388;9.986;2023-05-07T03:48:28;101388.66;;;10.05;77.88
77583;BME280;66726;52.388;9.986;2023-05-07T03:50:59;101385.28;;;10.12;77.65
77583;BME280;66726;52.388;9.986;2023-05-07T03:53:31;101390.34;;;10.06;77.38
77583;BME280;66726;52.388;9.986;2023-05-07T03:56:04;101390.19;;;9.98;77.90
77583;BME280;66726;52.388;9.986;2023-05-07T03:58:36;101393.59;;;10.00;78.01
77583;BME280;66726;52.388;9.986;2023-05-07T04:01:08;101396.69;;;10.05;77.72
77583;BME280;66726;52.388;9.986;2023-05-07T04:03:40;101393.31;;;10.03;77.96
77583;BME280;66726;52.388;9.986;2023-05-07T04:06:12;101401.88;;;9.97;78.21
77583;BME280;66726;52.388;9.986;2023-05-07T04:08:44;101407.22;;;9.97;77.99
77583;BME280;66726;52.388;9.986;2023-05-07T04:11:17;101411.59;;;9.98;77.53
77583;BME280;66726;52.388;9.986;2023-05-07T04:13:50;101409.19;;;9.95;77.36
77583;BME280;66726;52.388;9.986;2023-05-07T04:16:22;101415.97;;;9.99;77.98
77583;BME280;66726;52.388;9.986;2023-05-07T04:18:54;101409.91;;;9.97;78.15
77583;BME280;66726;52.388;9.986;2023-05-07T04:21:26;101418.47;;;10.00;77.89
77583;BME280;66726;52.388;9.986;2023-05-07T04:23:58;101421.44;;;9.88;78.30
77583;BME280;66726;52.388;9.986;2023-05-07T04:26:31;101419.34;;;9.82;78.49
77583;BME280;66726;52.388;9.986;2023-05-07T04:29:04;101428.34;;;9.90;77.76
77583;BME280;66726;52.388;9.986;2023-05-07T04:31:35;101424.13;;;9.88;77.46
77583;BME280;66726;52.388;9.986;2023-05-07T04:34:07;101431.44;;;9.86;78.12
77583;BME280;66726;52.388;9.986;2023-05-07T04:36:39;101434.41;;;9.83;78.29
77583;BME280;66726;52.388;9.986;2023-05-07T04:39:11;101429.47;;;9.88;77.34
77583;BME280;66726;52.388;9.986;2023-05-07T04:41:44;101435.78;;;9.87;77.19
77583;BME280;66726;52.388;9.986;2023-05-07T04:44:16;101434.25;;;9.84;77.62
77583;BME280;66726;52.388;9.986;2023-05-07T04:46:48;101440.72;;;9.82;77.35
77583;BME280;66726;52.388;9.986;2023-05-07T04:49:20;101438.47;;;9.87;77.03
77583;BME280;66726;52.388;9.986;2023-05-07T04:51:52;101440.72;;;9.82;77.31
77583;BME280;66726;52.388;9.986;2023-05-07T04:54:24;101444.38;;;9.81;76.65
77583;BME280;66726;52.388;9.986;2023-05-07T04:56:57;101446.63;;;9.76;76.61
77583;BME280;66726;52.388;9.986;2023-05-07T04:59:29;101454.22;;;9.80;76.45
77583;BME280;66726;52.388;9.986;2023-05-07T05:02:01;101452.84;;;9.86;76.21
77583;BME280;66726;52.388;9.986;2023-05-07T05:04:34;101463.78;;;9.73;75.98
77583;BME280;66726;52.388;9.986;2023-05-07T05:07:07;101472.53;;;9.75;75.95
77583;BME280;66726;52.388;9.986;2023-05-07T05:09:39;101477.59;;;9.78;75.67
77583;BME280;66726;52.388;9.986;2023-05-07T05:12:12;101470.69;;;9.76;75.73
77583;BME280;66726;52.388;9.986;2023-05-07T05:14:43;101472.53;;;9.75;75.67
77583;BME280;66726;52.388;9.986;2023-05-07T05:17:15;101480.13;;;9.80;76.02
77583;BME280;66726;52.388;9.986;2023-05-07T05:19:47;101471.41;;;9.78;76.29
77583;BME280;66726;52.388;9.986;2023-05-07T05:22:19;101471.84;;;9.83;75.39
77583;BME280;66726;52.388;9.986;2023-05-07T05:24:51;101483.50;;;9.82;75.52
77583;BME280;66726;52.388;9.986;2023-05-07T05:27:24;101483.22;;;9.85;75.51
77583;BME280;66726;52.388;9.986;2023-05-07T05:29:56;101474.53;;;9.83;74.66
77583;BME280;66726;52.388;9.986;2023-05-07T05:32:28;101480.41;;;9.77;74.77
77583;BME280;66726;52.388;9.986;2023-05-07T05:35:00;101469.16;;;9.83;75.87
77583;BME280;66726;52.388;9.986;2023-05-07T05:37:32;101472.53;;;9.85;75.78
77583;BME280;66726;52.388;9.986;2023-05-07T05:40:03;101478.75;;;9.95;75.40
77583;BME280;66726;52.388;9.986;2023-05-07T05:42:39;101481.44;;;9.95;74.81
77583;BME280;66726;52.388;9.986;2023-05-07T05:45:11;101470.72;;;9.95;75.12
77583;BME280;66726;52.388;9.986;2023-05-07T05:47:43;101479.31;;;9.89;74.80
77583;BME280;66726;52.388;9.986;2023-05-07T05:50:15;101480.13;;;9.80;74.85
77583;BME280;66726;52.388;9.986;2023-05-07T05:52:47;101479.88;;;9.83;74.89
77583;BME280;66726;52.388;9.986;2023-05-07T05:55:19;101474.06;;;9.78;74.49
77583;BME280;66726;52.388;9.986;2023-05-07T05:57:54;101481.25;;;9.87;74.56
77583;BME280;66726;52.388;9.986;2023-05-07T06:00:29;101466.06;;;9.87;74.07
77583;BME280;66726;52.388;9.986;2023-05-07T06:03:01;101477.06;;;9.94;74.02
77583;BME280;66726;52.388;9.986;2023-05-07T06:05:33;101486.78;;;9.95;74.32
77583;BME280;66726;52.388;9.986;2023-05-07T06:08:05;101488.88;;;9.91;73.69
77583;BME280;66726;52.388;9.986;2023-05-07T06:10:37;101494.81;;;10.04;73.85
77583;BME280;66726;52.388;9.986;2023-05-07T06:13:10;101509.47;;;10.10;73.96
77583;BME280;66726;52.388;9.986;2023-05-07T06:15:43;101486.09;;;10.02;73.28
77583;BME280;66726;52.388;9.986;2023-05-07T06:18:17;101484.94;;;9.95;73.25
77583;BME280;66726;52.388;9.986;2023-05-07T06:20:53;101488.88;;;10.01;73.54
77583;BME280;66726;52.388;9.986;2023-05-07T06:23:25;101485.41;;;10.10;73.50
77583;BME280;66726;52.388;9.986;2023-05-07T06:25:56;101482.44;;;10.13;73.03
77583;BME280;66726;52.388;9.986;2023-05-07T06:28:30;101488.47;;;10.05;72.99
77583;BME280;66726;52.388;9.986;2023-05-07T06:31:15;101489.63;;;10.03;73.67
77583;BME280;66726;52.388;9.986;2023-05-07T06:33:49;101490.88;;;10.08;73.50
77583;BME280;66726;52.388;9.986;2023-05-07T06:36:21;101490.31;;;10.05;73.35
77583;BME280;66726;52.388;9.986;2023-05-07T06:38:53;101493.94;;;9.94;73.37
77583;BME280;66726;52.388;9.986;2023-05-07T06:41:25;101492.59;;;10.09;73.72
77583;BME280;66726;52.388;9.986;2023-05-07T06:43:58;101495.78;;;10.03;73.84
77583;BME280;66726;52.388;9.986;2023-05-07T06:46:31;101488.66;;;10.13;73.72
77583;BME280;66726;52.388;9.986;2023-05-07T06:49:03;101494.25;;;10.10;73.40
77583;BME280;66726;52.388;9.986;2023-05-07T06:51:36;101492.28;;;10.12;73.10
77583;BME280;66726;52.388;9.986;2023-05-07T06:54:08;101489.25;;;10.17;73.48
77583;BME280;66726;52.388;9.986;2023-05-07T06:56:40;101495.41;;;10.17;73.34
77583;BME280;66726;52.388;9.986;2023-05-07T06:59:13;101493.75;;;10.16;73.23
77583;BME280;66726;52.388;9.986;2023-05-07T07:01:45;101505.03;;;10.20;73.19
77583;BME280;66726;52.388;9.986;2023-05-07T07:04:17;101496.78;;;10.12;73.23
77583;BME280;66726;52.388;9.986;2023-05-07T07:06:49;101500.94;;;10.16;73.30
77583;BME280;66726;52.388;9.986;2023-05-07T07:09:21;101506.53;;;10.13;73.38
77583;BME280;66726;52.388;9.986;2023-05-07T07:11:53;101509.53;;;10.20;73.12
77583;BME280;66726;52.388;9.986;2023-05-07T07:14:27;101500.66;;;10.19;73.31
77583;BME280;66726;52.388;9.986;2023-05-07T07:16:59;101497.69;;;10.22;72.57
77583;BME280;66726;52.388;9.986;2023-05-07T07:19:30;101506.69;;;10.21;72.29
77583;BME280;66726;52.388;9.986;2023-05-07T07:22:02;101510.09;;;10.23;72.96
77583;BME280;66726;52.388;9.986;2023-05-07T07:24:34;101507.53;;;10.31;72.73
77583;BME280;66726;52.388;9.986;2023-05-07T07:27:06;101517.72;;;10.37;71.69
77583;BME280;66726;52.388;9.986;2023-05-07T07:29:39;101520.50;;;10.45;72.06
77583;BME280;66726;52.388;9.986;2023-05-07T07:32:11;101522.22;;;10.46;71.46
77583;BME280;66726;52.388;9.986;2023-05-07T07:34:43;101518.28;;;10.50;71.20
77583;BME280;66726;52.388;9.986;2023-05-07T07:37:15;101519.94;;;10.51;71.16
77583;BME280;66726;52.388;9.986;2023-05-07T07:39:46;101525.75;;;10.47;70.61
77583;BME280;66726;52.388;9.986;2023-05-07T07:42:20;101527.56;;;10.46;70.64
77583;BME280;66726;52.388;9.986;2023-05-07T07:44:53;101511.22;;;10.49;70.27
77583;BME280;66726;52.388;9.986;2023-05-07T07:47:25;101523.06;;;10.56;70.67
77583;BME280;66726;52.388;9.986;2023-05-07T07:49:57;101528.41;;;10.56;70.27
77583;BME280;66726;52.388;9.986;2023-05-07T07:52:28;101523.75;;;10.58;70.69
77583;BME280;66726;52.388;9.986;2023-05-07T07:55:00;101521.22;;;10.66;71.22
77583;BME280;66726;52.388;9.986;2023-05-07T07:57:34;101519.66;;;10.74;70.47
77583;BME280;66726;52.388;9.986;2023-05-07T08:00:11;101523.31;;;10.73;70.65
77583;BME280;66726;52.388;9.986;2023-05-07T08:02:43;101526.44;;;10.78;70.61
77583;BME280;66726;52.388;9.986;2023-05-07T08:05:15;101528.13;;;10.79;70.53
77583;BME280;66726;52.388;9.986;2023-05-07T08:07:47;101533.59;;;10.87;70.08
77583;BME280;66726;52.388;9.986;2023-05-07T08:10:23;101530.63;;;10.99;70.89
77583;BME280;66726;52.388;9.986;2023-05-07T08:12:56;101529.78;;;10.99;70.05
77583;BME280;66726;52.388;9.986;2023-05-07T08:15:29;101521.00;;;11.06;70.26
77583;BME280;66726;52.388;9.986;2023-05-07T08:18:02;101521.28;;;11.13;70.07
77583;BME280;66726;52.388;9.986;2023-05-07T08:20:35;101534.50;;;11.24;71.06
77583;BME280;66726;52.388;9.986;2023-05-07T08:23:11;101519.84;;;11.28;69.96
77583;BME280;66726;52.388;9.986;2023-05-07T08:25:44;101532.81;;;11.33;69.59
77583;BME280;66726;52.388;9.986;2023-05-07T08:28:16;101536.47;;;11.32;69.31
77583;BME280;66726;52.388;9.986;2023-05-07T08:30:51;101534.22;;;11.37;69.31
77583;BME280;66726;52.388;9.986;2023-05-07T08:33:23;101532.47;;;11.45;70.34
77583;BME280;66726;52.388;9.986;2023-05-07T08:35:55;101538.81;;;11.44;68.54
77583;BME280;66726;52.388;9.986;2023-05-07T08:38:27;101543.19;;;11.45;68.03
77583;BME280;66726;52.388;9.986;2023-05-07T08:40:59;101542.34;;;11.45;68.51
77583;BME280;66726;52.388;9.986;2023-05-07T08:43:33;101545.50;;;11.40;68.10
77583;BME280;66726;52.388;9.986;2023-05-07T08:46:10;101539.84;;;11.43;68.40
77583;BME280;66726;52.388;9.986;2023-05-07T08:48:43;101540.38;;;11.47;68.41
77583;BME280;66726;52.388;9.986;2023-05-07T08:51:18;101542.56;;;11.61;69.08
77583;BME280;66726;52.388;9.986;2023-05-07T08:53:52;101540.53;;;11.45;67.58
77583;BME280;66726;52.388;9.986;2023-05-07T08:56:24;101544.00;;;11.55;68.90
77583;BME280;66726;52.388;9.986;2023-05-07T08:58:56;101547.66;;;11.64;69.35
77583;BME280;66726;52.388;9.986;2023-05-07T09:01:30;101549.78;;;11.60;68.64
77583;BME280;66726;52.388;9.986;2023-05-07T09:04:02;101557.53;;;11.63;67.71
77583;BME280;66726;52.388;9.986;2023-05-07T09:06:34;101554.97;;;11.72;68.04
77583;BME280;66726;52.388;9.986;2023-05-07T09:09:07;101557.47;;;11.83;68.67
77583;BME280;66726;52.388;9.986;2023-05-07T09:11:39;101549.84;;;11.88;68.35
77583;BME280;66726;52.388;9.986;2023-05-07T09:14:11;101557.44;;;11.92;67.77
77583;BME280;66726;52.388;9.986;2023-05-07T09:16:45;101553.88;;;12.01;67.98
77583;BME280;66726;52.388;9.986;2023-05-07T09:19:24;101553.09;;;12.09;68.15
77583;BME280;66726;52.388;9.986;2023-05-07T09:22:04;101549.03;;;12.05;67.36
77583;BME280;66726;52.388;9.986;2023-05-07T09:24:40;101557.56;;;12.18;67.83
77583;BME280;66726;52.388;9.986;2023-05-07T09:27:12;101559.97;;;12.21;66.80
77583;BME280;66726;52.388;9.986;2023-05-07T09:29:44;101552.00;;;12.29;66.86
77583;BME280;66726;52.388;9.986;2023-05-07T09:32:18;101555.06;;;12.34;67.11
77583;BME280;66726;52.388;9.986;2023-05-07T09:34:50;101564.50;;;12.38;66.83
77583;BME280;66726;52.388;9.986;2023-05-07T09:37:23;101560.75;;;12.31;65.42
77583;BME280;66726;52.388;9.986;2023-05-07T09:39:57;101555.78;;;12.36;67.06
77583;BME280;66726;52.388;9.986;2023-05-07T09:42:29;101560.13;;;12.37;66.54
77583;BME280;66726;52.388;9.986;2023-05-07T09:45:02;101563.66;;;12.38;66.47
77583;BME280;66726;52.388;9.986;2023-05-07T09:47:43;101565.97;;;12.33;66.00
77583;BME280;66726;52.388;9.986;2023-05-07T09:50:17;101564.09;;;12.33;66.40
77583;BME280;66726;52.388;9.986;2023-05-07T09:52:51;101555.16;;;12.42;65.79
77583;BME280;66726;52.388;9.986;2023-05-07T09:55:24;101553.31;;;12.43;65.60
77583;BME280;66726;52.388;9.986;2023-05-07T09:57:57;101553.16;;;12.44;64.89
77583;BME280;66726;52.388;9.986;2023-05-07T10:00:31;101545.50;;;12.49;66.70
77583;BME280;66726;52.388;9.986;2023-05-07T10:03:06;101550.16;;;12.47;64.94
77583;BME280;66726;52.388;9.986;2023-05-07T10:05:41;101548.31;;;12.48;65.53
77583;BME280;66726;52.388;9.986;2023-05-07T10:08:15;101547.47;;;12.65;65.93
77583;BME280;66726;52.388;9.986;2023-05-07T10:10:48;101558.09;;;12.66;65.68
77583;BME280;66726;52.388;9.986;2023-05-07T10:13:20;101554.38;;;12.67;64.08
77583;BME280;66726;52.388;9.986;2023-05-07T10:15:56;101546.41;;;12.76;64.75
77583;BME280;66726;52.388;9.986;2023-05-07T10:18:31;101554.84;;;12.81;63.56
77583;BME280;66726;52.388;9.986;2023-05-07T10:21:10;101561.03;;;12.99;63.53
77583;BME280;66726;52.388;9.986;2023-05-07T10:23:48;101568.81;;;12.66;63.64
77583;BME280;66726;52.388;9.986;2023-05-07T10:26:23;101567.97;;;12.84;64.42
77583;BME280;66726;52.388;9.986;2023-05-07T10:29:05;101566.91;;;12.94;65.47
77583;BME280;66726;52.388;9.986;2023-05-07T10:31:54;101567.66;;;13.04;63.94
77583;BME280;66726;52.388;9.986;2023-05-07T10:34:34;101558.09;;;13.28;65.58
77583;BME280;66726;52.388;9.986;2023-05-07T10:37:09;101547.31;;;13.53;64.09
77583;BME280;66726;52.388;9.986;2023-05-07T10:39:43;101549.72;;;13.64;63.38
77583;BME280;66726;52.388;9.986;2023-05-07T10:42:16;101556.09;;;13.63;62.61
77583;BME280;66726;52.388;9.986;2023-05-07T10:44:48;101562.38;;;13.72;62.04
77583;BME280;66726;52.388;9.986;2023-05-07T10:47:21;101570.28;;;13.73;63.10
77583;BME280;66726;52.388;9.986;2023-05-07T10:50:26;101560.34;;;13.66;61.63
77583;BME280;66726;52.388;9.986;2023-05-07T10:53:27;101566.13;;;13.79;62.07
77583;BME280;66726;52.388;9.986;2023-05-07T10:56:31;101568.09;;;13.69;60.85
77583;BME280;66726;52.388;9.986;2023-05-07T10:59:38;101566.41;;;13.68;61.46
77583;BME280;66726;52.388;9.986;2023-05-07T11:02:14;101572.09;;;13.65;61.03
77583;BME280;66726;52.388;9.986;2023-05-07T11:04:47;101571.97;;;13.75;61.47
77583;BME280;66726;52.388;9.986;2023-05-07T11:07:39;101579.06;;;13.76;61.49
77583;BME280;66726;52.388;9.986;2023-05-07T11:10:11;101584.31;;;13.85;60.71
77583;BME280;66726;52.388;9.986;2023-05-07T11:12:54;101568.22;;;13.93;61.33
77583;BME280;66726;52.388;9.986;2023-05-07T11:15:46;101563.50;;;13.95;60.69
77583;BME280;66726;52.388;9.986;2023-05-07T11:18:19;101574.63;;;14.00;61.55
77583;BME280;66726;52.388;9.986;2023-05-07T11:20:55;101567.78;;;14.14;61.00
77583;BME280;66726;52.388;9.986;2023-05-07T11:24:08;101573.84;;;14.16;60.57
77583;BME280;66726;52.388;9.986;2023-05-07T11:26:48;101580.56;;;14.12;59.85
77583;BME280;66726;52.388;9.986;2023-05-07T11:29:22;101568.41;;;14.08;59.99
77583;BME280;66726;52.388;9.986;2023-05-07T11:31:54;101574.31;;;14.11;60.99
77583;BME280;66726;52.388;9.986;2023-05-07T11:34:28;101570.63;;;14.12;60.69
77583;BME280;66726;52.388;9.986;2023-05-07T11:37:02;101574.78;;;13.99;61.58
77583;BME280;66726;52.388;9.986;2023-05-07T11:39:36;101578.56;;;14.14;61.91
77583;BME280;66726;52.388;9.986;2023-05-07T11:42:08;101582.44;;;14.19;61.93
77583;BME280;66726;52.388;9.986;2023-05-07T11:44:56;101574.06;;;14.31;61.89
77583;BME280;66726;52.388;9.986;2023-05-07T11:47:31;101580.84;;;14.35;61.87
77583;BME280;66726;52.388;9.986;2023-05-07T11:50:08;101574.91;;;14.31;60.89
77583;BME280;66726;52.388;9.986;2023-05-07T11:52:49;101579.94;;;14.26;59.92
77583;BME280;66726;52.388;9.986;2023-05-07T11:55:23;101577.63;;;14.39;61.31
77583;BME280;66726;52.388;9.986;2023-05-07T11:57:56;101568.22;;;14.43;60.23
77583;BME280;66726;52.388;9.986;2023-05-07T12:00:29;101571.59;;;14.45;59.44
77583;BME280;66726;52.388;9.986;2023-05-07T12:03:05;101574.97;;;14.47;59.03
77583;BME280;66726;52.388;9.986;2023-05-07T12:05:37;101578.88;;;14.61;61.15
77583;BME280;66726;52.388;9.986;2023-05-07T12:08:18;101585.56;;;14.41;59.17
77583;BME280;66726;52.388;9.986;2023-05-07T12:10:53;101568.56;;;14.40;58.70
77583;BME280;66726;52.388;9.986;2023-05-07T12:13:28;101570.88;;;14.35;58.28
77583;BME280;66726;52.388;9.986;2023-05-07T12:16:01;101565.69;;;14.42;59.44
77583;BME280;66726;52.388;9.986;2023-05-07T12:18:37;101571.06;;;14.42;58.34
77583;BME280;66726;52.388;9.986;2023-05-07T12:21:09;101568.25;;;14.59;59.48
77583;BME280;66726;52.388;9.986;2023-05-07T12:23:43;101573.66;;;14.67;58.79
77583;BME280;66726;52.388;9.986;2023-05-07T12:26:16;101568.75;;;14.55;59.37
77583;BME280;66726;52.388;9.986;2023-05-07T12:28:51;101575.50;;;14.83;58.72
77583;BME280;66726;52.388;9.986;2023-05-07T12:31:23;101577.03;;;14.94;58.33
77583;BME280;66726;52.388;9.986;2023-05-07T12:33:56;101580.09;;;14.99;58.09
77583;BME280;66726;52.388;9.986;2023-05-07T12:36:38;101574.50;;;15.08;59.44
77583;BME280;66726;52.388;9.986;2023-05-07T12:39:11;101574.69;;;15.15;57.96
77583;BME280;66726;52.388;9.986;2023-05-07T12:42:00;101577.22;;;15.16;57.42
77583;BME280;66726;52.388;9.986;2023-05-07T12:44:34;101568.94;;;15.26;57.74
77583;BME280;66726;52.388;9.986;2023-05-07T12:47:06;101580.03;;;15.31;58.06
77583;BME280;66726;52.388;9.986;2023-05-07T12:49:39;101569.91;;;15.41;57.52
77583;BME280;66726;52.388;9.986;2023-05-07T12:52:13;101575.81;;;15.61;58.81
77583;BME280;66726;52.388;9.986;2023-05-07T12:54:45;101577.09;;;15.81;57.59
77583;BME280;66726;52.388;9.986;2023-05-07T12:57:23;101589.13;;;15.70;56.22
77583;BME280;66726;52.388;9.986;2023-05-07T12:59:59;101588.78;;;15.65;57.37
77583;BME280;66726;52.388;9.986;2023-05-07T13:02:40;101590.97;;;15.62;56.63
77583;BME280;66726;52.388;9.986;2023-05-07T13:05:14;101580.53;;;15.67;56.21
77583;BME280;66726;52.388;9.986;2023-05-07T13:07:58;101571.56;;;15.75;56.13
77583;BME280;66726;52.388;9.986;2023-05-07T13:10:31;101577.31;;;15.71;56.64
77583;BME280;66726;52.388;9.986;2023-05-07T13:13:05;101577.47;;;15.78;57.58
77583;BME280;66726;52.388;9.986;2023-05-07T13:15:37;101579.97;;;15.80;56.57
77583;BME280;66726;52.388;9.986;2023-05-07T13:18:09;101579.88;;;15.57;57.41
77583;BME280;66726;52.388;9.986;2023-05-07T13:20:41;101577.63;;;15.68;55.66
77583;BME280;66726;52.388;9.986;2023-05-07T13:23:13;101578.59;;;15.92;56.05
77583;BME280;66726;52.388;9.986;2023-05-07T13:25:45;101574.19;;;15.99;55.36
77583;BME280;66726;52.388;9.986;2023-05-07T13:28:18;101578.13;;;16.19;57.05